Lhanbryd, United Kingdom
Current Conditions -  °F | °C
As of 7:50 AM on Friday 28 Nov 2014 (Local Time) from EGQS Reporting Station
Few Clouds Few Clouds  
Wind Chill: 43°   Ceiling: Unl
Heat Index: 46°   Visibility: 6mi
Dew Point: 41°   Wind: 7mph
Humidity: 81%   Direction: 130°SE
Pressure: 29.77"   Gusts: NA
Location:  57.62°N, 3.22°W
Report Text: EGQS 280750Z 13006KT 9999 FEW025 08/05 Q1008 BLU NOSIG
Loading
Personal Weather Stations






























Interactive Weather Map New forecast layout! Learn more

10-Day Weather Forecast

Advertisements
Track Severe Weather on mobile